createdAt,value
2019-05-01T00:00:28.003Z,1.50
2019-05-01T00:03:12.932Z,1.42
2019-05-01T00:05:44.201Z,1.22
2019-05-01T00:08:13.613Z,1.25
2019-05-01T00:10:43.027Z,1.17
2019-05-01T00:13:12.539Z,1.17
2019-05-01T00:15:42.326Z,1.20
2019-05-01T00:18:11.761Z,1.25
2019-05-01T00:20:41.171Z,1.20
2019-05-01T00:23:08.831Z,1.17
2019-05-01T00:25:38.254Z,1.30
2019-05-01T00:28:07.672Z,1.20
2019-05-01T00:30:37.106Z,1.30
2019-05-01T00:33:06.562Z,1.25
2019-05-01T00:35:35.993Z,1.42
2019-05-01T00:38:05.389Z,1.20
2019-05-01T00:40:34.808Z,1.20
2019-05-01T00:43:04.239Z,1.12
2019-05-01T00:45:33.701Z,1.42
2019-05-01T00:48:03.128Z,1.22
2019-05-01T00:50:32.548Z,1.20
2019-05-01T00:53:01.966Z,1.35
2019-05-01T00:55:50.262Z,1.25
2019-05-01T00:58:43.475Z,1.22
2019-05-01T01:01:29.396Z,1.30
2019-05-01T01:03:58.805Z,1.22
2019-05-01T01:06:28.254Z,1.35
2019-05-01T01:08:57.692Z,1.65
2019-05-01T01:11:27.125Z,1.40
2019-05-01T01:13:56.554Z,1.40
2019-05-01T01:16:25.959Z,1.32
2019-05-01T01:18:55.400Z,1.30
2019-05-01T01:21:24.827Z,1.70
2019-05-01T01:23:54.250Z,1.47
2019-05-01T01:26:23.670Z,1.92
2019-05-01T01:28:53.073Z,1.35
2019-05-01T01:31:22.478Z,1.47
2019-05-01T01:33:51.903Z,1.72
2019-05-01T01:36:21.315Z,1.80
2019-05-01T01:38:50.761Z,1.52
2019-05-01T01:41:20.163Z,1.57
2019-05-01T01:44:11.489Z,1.85
2019-05-01T01:46:41.416Z,1.25
2019-05-01T01:49:10.846Z,1.45
2019-05-01T01:51:40.253Z,1.50
2019-05-01T01:54:09.685Z,1.62
2019-05-01T01:56:39.143Z,1.50
2019-05-01T01:59:08.569Z,1.57
2019-05-01T02:01:59.872Z,1.50
2019-05-01T02:04:56.571Z,1.55
2019-05-01T02:07:26.010Z,1.50
2019-05-01T02:09:55.433Z,1.57
2019-05-01T02:12:24.833Z,1.40
2019-05-01T02:14:54.230Z,1.37
2019-05-01T02:17:23.650Z,1.50
2019-05-01T02:19:53.083Z,1.80
2019-05-01T02:22:22.506Z,1.50
2019-05-01T02:24:51.923Z,1.50
2019-05-01T02:27:29.630Z,1.42
2019-05-01T02:30:01.136Z,1.60
2019-05-01T02:32:30.559Z,1.27
2019-05-01T02:35:00.773Z,1.40
2019-05-01T02:37:30.205Z,1.50
2019-05-01T02:39:59.611Z,1.20
2019-05-01T02:42:29.569Z,1.30
2019-05-01T02:44:59.014Z,1.37
2019-05-01T02:47:29.879Z,1.37
2019-05-01T02:50:05.168Z,1.52
2019-05-01T02:52:36.079Z,1.37
2019-05-01T02:55:08.444Z,1.30
2019-05-01T02:57:37.888Z,1.25
2019-05-01T03:00:07.469Z,1.37
2019-05-01T03:02:36.887Z,1.25
2019-05-01T03:05:06.631Z,1.27
2019-05-01T03:07:36.127Z,1.40
2019-05-01T03:10:09.249Z,1.30
2019-05-01T03:12:38.450Z,1.37
2019-05-01T03:15:08.372Z,1.40
2019-05-01T03:18:02.708Z,1.25
2019-05-01T03:20:39.008Z,1.30
2019-05-01T03:23:14.662Z,1.30
2019-05-01T03:25:44.165Z,1.30
2019-05-01T03:28:13.761Z,0.98
2019-05-01T03:30:43.204Z,1.40
2019-05-01T03:33:12.628Z,1.50
2019-05-01T03:35:42.042Z,1.32
2019-05-01T03:38:11.456Z,1.07
2019-05-01T03:40:40.889Z,1.10
2019-05-01T03:43:10.339Z,1.10
2019-05-01T03:45:40.063Z,1.32
2019-05-01T03:48:09.493Z,1.40
2019-05-01T03:50:39.047Z,0.95
2019-05-01T03:53:08.570Z,1.27
2019-05-01T03:55:38.016Z,1.07
2019-05-01T03:58:07.472Z,1.17
2019-05-01T04:01:07.269Z,1.35
2019-05-01T04:03:41.633Z,1.20
2019-05-01T04:06:11.341Z,1.10
2019-05-01T04:08:40.762Z,1.20
2019-05-01T04:11:10.626Z,1.40
2019-05-01T04:13:40.215Z,1.00
2019-05-01T04:16:09.638Z,1.20
2019-05-01T04:18:39.395Z,1.07
2019-05-01T04:21:09.627Z,1.00
2019-05-01T04:23:39.242Z,1.00
2019-05-01T04:26:08.823Z,1.10
2019-05-01T04:28:51.675Z,1.00
2019-05-01T04:31:46.161Z,1.20
2019-05-01T04:34:25.217Z,1.10
2019-05-01T04:36:56.732Z,1.37
2019-05-01T04:39:26.160Z,1.95
2019-05-01T04:41:55.588Z,2.22
2019-05-01T04:44:25.006Z,2.40
2019-05-01T04:46:54.595Z,1.72
2019-05-01T04:49:24.033Z,1.47
2019-05-01T04:51:53.500Z,1.57
2019-05-01T04:54:23.002Z,1.20
2019-05-01T04:56:52.446Z,1.90
2019-05-01T04:59:21.869Z,3.40
2019-05-01T05:01:56.693Z,3.17
2019-05-01T05:04:25.131Z,2.72
2019-05-01T05:06:54.573Z,2.25
2019-05-01T05:09:41.504Z,2.08
2019-05-01T05:12:15.945Z,2.70
2019-05-01T05:14:48.788Z,2.15
2019-05-01T05:17:21.018Z,2.47
2019-05-01T05:19:50.451Z,2.75
2019-05-01T05:22:19.856Z,2.50
2019-05-01T05:24:49.278Z,3.10
2019-05-01T05:27:18.784Z,2.90
2019-05-01T05:29:48.414Z,3.02
2019-05-01T05:32:18.047Z,4.53
2019-05-01T05:34:47.618Z,3.52
2019-05-01T05:37:23.920Z,4.47
2019-05-01T05:39:53.411Z,4.90
2019-05-01T05:42:22.883Z,4.70
2019-05-01T05:44:52.325Z,4.83
2019-05-01T05:47:21.819Z,4.85
2019-05-01T05:49:51.234Z,5.17
2019-05-01T05:52:31.035Z,4.50
2019-05-01T05:55:07.984Z,4.20
2019-05-01T05:58:00.758Z,4.85
2019-05-01T06:00:41.994Z,4.62
2019-05-01T06:03:31.193Z,4.90
2019-05-01T06:06:07.997Z,4.60
2019-05-01T06:08:37.464Z,3.95
2019-05-01T06:11:29.617Z,4.87
2019-05-01T06:14:14.389Z,4.45
2019-05-01T06:16:59.007Z,4.28
2019-05-01T06:19:33.946Z,4.20
2019-05-01T06:22:20.713Z,4.67
2019-05-01T06:24:53.132Z,4.47
2019-05-01T06:27:22.562Z,4.25
2019-05-01T06:29:51.990Z,4.22
2019-05-01T06:32:21.401Z,4.15
2019-05-01T06:34:50.827Z,4.10
2019-05-01T06:37:20.839Z,4.20
2019-05-01T06:39:51.432Z,4.30
2019-05-01T06:42:21.432Z,4.00
2019-05-01T06:44:59.390Z,3.83
2019-05-01T06:47:38.192Z,3.72
2019-05-01T06:50:27.212Z,4.15
2019-05-01T06:52:59.813Z,3.87
2019-05-01T06:55:28.967Z,4.25
2019-05-01T06:57:58.495Z,3.92
2019-05-01T07:00:27.967Z,4.00
2019-05-01T07:02:57.393Z,3.98
2019-05-01T07:05:26.833Z,4.47
2019-05-01T07:07:56.251Z,3.35
2019-05-01T07:10:31.620Z,3.70
2019-05-01T07:12:59.876Z,4.40
2019-05-01T07:15:28.500Z,4.60
2019-05-01T07:17:57.908Z,3.92
2019-05-01T07:20:47.388Z,3.70
2019-05-01T07:23:18.712Z,4.10
2019-05-01T07:25:48.214Z,3.90
2019-05-01T07:28:17.633Z,4.60
2019-05-01T07:30:59.503Z,3.98
2019-05-01T07:33:28.940Z,4.00
2019-05-01T07:35:58.357Z,4.10
2019-05-01T07:38:27.780Z,4.22
2019-05-01T07:40:58.775Z,4.03
2019-05-01T07:43:45.580Z,3.98
2019-05-01T07:46:20.489Z,3.90
2019-05-01T07:48:49.897Z,3.75
2019-05-01T07:51:19.331Z,4.08
2019-05-01T07:53:48.767Z,4.08
2019-05-01T07:56:18.178Z,4.50
2019-05-01T07:58:51.897Z,3.95
2019-05-01T08:01:41.578Z,3.87
2019-05-01T08:04:13.739Z,3.83
2019-05-01T08:06:42.156Z,4.08
2019-05-01T08:09:15.103Z,3.72
2019-05-01T08:11:44.060Z,3.60
2019-05-01T08:14:16.536Z,3.75
2019-05-01T08:16:45.046Z,3.85
2019-05-01T08:19:22.806Z,3.58
2019-05-01T08:21:57.005Z,3.60
2019-05-01T08:24:27.251Z,3.65
2019-05-01T08:26:56.691Z,4.00
2019-05-01T08:29:50.830Z,4.08
2019-05-01T08:32:40.916Z,4.28
2019-05-01T08:35:12.442Z,3.40
2019-05-01T08:37:41.878Z,3.70
2019-05-01T08:40:11.297Z,3.75
2019-05-01T08:42:42.675Z,3.67
2019-05-01T08:45:22.188Z,3.40
2019-05-01T08:48:01.491Z,3.75
2019-05-01T08:50:30.948Z,3.62
2019-05-01T08:53:00.377Z,3.60
2019-05-01T08:55:29.821Z,3.55
2019-05-01T08:57:59.238Z,3.33
2019-05-01T09:00:30.976Z,3.92
2019-05-01T09:03:08.128Z,3.45
2019-05-01T09:05:33.924Z,3.30
2019-05-01T09:08:02.226Z,3.90
2019-05-01T09:10:31.657Z,3.70
2019-05-01T09:13:01.075Z,3.10
2019-05-01T09:15:30.503Z,3.02
2019-05-01T09:17:59.948Z,2.98
2019-05-01T09:20:29.984Z,2.92
2019-05-01T09:22:59.413Z,3.00
2019-05-01T09:25:38.637Z,3.30
2019-05-01T09:28:17.481Z,2.80
2019-05-01T09:31:01.563Z,2.83
2019-05-01T09:33:30.780Z,2.85
2019-05-01T09:35:58.675Z,3.52
2019-05-01T09:38:28.170Z,2.50
2019-05-01T09:40:57.580Z,2.80
2019-05-01T09:43:30.895Z,2.60
2019-05-01T09:45:58.169Z,2.58
2019-05-01T09:48:27.698Z,2.77
2019-05-01T09:51:06.737Z,2.60
2019-05-01T09:53:48.568Z,2.40
2019-05-01T09:56:21.096Z,2.62
2019-05-01T09:58:50.528Z,2.52
2019-05-01T10:01:24.091Z,2.30
2019-05-01T10:03:54.675Z,2.40
2019-05-01T10:06:22.274Z,2.40
2019-05-01T10:08:51.697Z,2.45
2019-05-01T10:11:21.138Z,2.40
2019-05-01T10:13:53.781Z,2.27
2019-05-01T10:16:21.756Z,1.72
2019-05-01T10:18:51.198Z,2.27
2019-05-01T10:21:22.347Z,2.02
2019-05-01T10:23:52.843Z,2.15
2019-05-01T10:26:25.359Z,2.20
2019-05-01T10:29:21.367Z,2.02
2019-05-01T10:32:16.993Z,2.08
2019-05-01T10:34:56.912Z,1.85
2019-05-01T10:37:28.348Z,2.12
2019-05-01T10:39:57.538Z,2.00
2019-05-01T10:42:26.962Z,1.95
2019-05-01T10:44:56.399Z,1.85
2019-05-01T10:47:25.824Z,1.85
2019-05-01T10:49:55.267Z,1.85
2019-05-01T10:52:24.679Z,2.05
2019-05-01T10:54:54.102Z,1.70
2019-05-01T10:57:23.535Z,1.82
2019-05-01T10:59:52.999Z,1.77
2019-05-01T11:02:22.445Z,1.57
2019-05-01T11:04:51.844Z,2.00
2019-05-01T11:07:21.263Z,1.65
2019-05-01T11:09:50.741Z,1.50
2019-05-01T11:12:20.190Z,1.75
2019-05-01T11:14:49.592Z,2.05
2019-05-01T11:17:19.033Z,2.17
2019-05-01T11:19:48.448Z,2.30
2019-05-01T11:22:17.948Z,2.08
2019-05-01T11:24:47.399Z,2.20
2019-05-01T11:27:16.812Z,2.10
2019-05-01T11:29:46.217Z,1.98
2019-05-01T11:32:25.089Z,2.65
2019-05-01T11:35:10.238Z,1.80
2019-05-01T11:37:51.388Z,2.20
2019-05-01T11:40:39.688Z,1.67
2019-05-01T11:43:09.906Z,2.10
2019-05-01T11:45:39.418Z,1.75
2019-05-01T11:48:08.864Z,1.62
2019-05-01T11:50:38.560Z,2.00
2019-05-01T11:53:07.968Z,2.10
2019-05-01T11:55:37.395Z,1.50
2019-05-01T11:58:06.842Z,2.00
2019-05-01T12:00:36.269Z,1.87
2019-05-01T12:03:05.696Z,1.95
2019-05-01T12:05:35.124Z,1.95
2019-05-01T12:08:04.562Z,1.82
2019-05-01T12:10:33.993Z,2.00
2019-05-01T12:13:03.453Z,1.50
2019-05-01T12:15:32.897Z,1.92
2019-05-01T12:18:02.336Z,1.70
2019-05-01T12:20:31.806Z,1.67
2019-05-01T12:23:01.289Z,1.80
2019-05-01T12:25:30.708Z,1.92
2019-05-01T12:28:00.132Z,1.95
2019-05-01T12:30:29.561Z,1.47
2019-05-01T12:32:59.001Z,1.82
2019-05-01T12:35:28.466Z,1.70
2019-05-01T12:38:00.699Z,1.85
2019-05-01T12:40:30.114Z,2.15
2019-05-01T12:42:59.532Z,2.10
2019-05-01T12:45:28.975Z,1.90
2019-05-01T12:48:03.089Z,1.62
2019-05-01T12:50:32.527Z,1.85
2019-05-01T12:53:14.557Z,1.90
2019-05-01T12:56:02.812Z,1.65
2019-05-01T12:58:32.289Z,1.40
2019-05-01T13:01:01.707Z,1.72
2019-05-01T13:03:31.123Z,1.50
2019-05-01T13:06:00.565Z,1.70
2019-05-01T13:08:29.982Z,1.60
2019-05-01T13:10:59.466Z,1.47
2019-05-01T13:13:28.984Z,1.35
2019-05-01T13:15:58.428Z,1.52
2019-05-01T13:18:27.826Z,1.50
2019-05-01T13:20:57.271Z,1.57
2019-05-01T13:23:26.697Z,1.37
2019-05-01T13:25:59.625Z,1.70
2019-05-01T13:28:56.670Z,1.60
2019-05-01T13:31:32.875Z,1.57
2019-05-01T13:34:02.343Z,1.45
2019-05-01T13:36:31.770Z,1.60
2019-05-01T13:39:01.221Z,1.30
2019-05-01T13:41:30.645Z,1.82
2019-05-01T13:44:00.071Z,1.52
2019-05-01T13:46:29.512Z,1.52
2019-05-01T13:48:58.928Z,2.22
2019-05-01T13:51:28.413Z,1.62
2019-05-01T13:53:57.823Z,1.55
2019-05-01T13:56:27.279Z,1.80
2019-05-01T13:58:56.810Z,1.60
2019-05-01T14:01:26.855Z,1.47
2019-05-01T14:03:56.304Z,1.65
2019-05-01T14:06:25.764Z,1.62
2019-05-01T14:08:55.217Z,1.80
2019-05-01T14:11:24.634Z,1.95
2019-05-01T14:13:54.067Z,1.80
2019-05-01T14:16:23.487Z,1.80
2019-05-01T14:18:52.923Z,1.50
2019-05-01T14:21:44.218Z,2.02
2019-05-01T14:24:44.398Z,1.37
2019-05-01T14:27:13.811Z,1.40
2019-05-01T14:29:43.256Z,1.40
2019-05-01T14:32:12.735Z,1.45
2019-05-01T14:34:42.152Z,1.00
2019-05-01T14:37:11.578Z,1.60
2019-05-01T14:39:41.022Z,1.20
2019-05-01T14:42:10.544Z,1.42
2019-05-01T14:44:39.991Z,1.45
2019-05-01T14:47:09.433Z,1.35
2019-05-01T14:49:38.908Z,1.75
2019-05-01T14:52:08.345Z,1.20
2019-05-01T14:54:37.750Z,1.20
2019-05-01T14:57:07.192Z,0.90
2019-05-01T14:59:36.638Z,1.20
2019-05-01T15:02:06.066Z,1.05
2019-05-01T15:04:35.490Z,7.20
2019-05-01T15:07:04.940Z,10.45
2019-05-01T15:09:34.398Z,26.70
2019-05-01T15:12:05.891Z,17.32
2019-05-01T15:14:57.025Z,42.95
2019-05-01T15:17:48.163Z,38.05
2019-05-01T15:20:17.602Z,45.65
2019-05-01T15:22:47.058Z,47.20
2019-05-01T15:25:16.520Z,57.75
2019-05-01T15:27:47.198Z,54.40
2019-05-01T15:30:18.873Z,66.33
2019-05-01T15:32:48.327Z,33.02
2019-05-01T15:35:17.762Z,13.13
2019-05-01T15:37:56.470Z,23.02
2019-05-01T15:40:26.460Z,19.90
2019-05-01T15:43:02.297Z,35.35
2019-05-01T15:45:31.730Z,34.65
2019-05-01T15:48:01.192Z,30.27
2019-05-01T15:50:30.647Z,25.50
2019-05-01T15:53:00.074Z,45.70
2019-05-01T15:55:29.550Z,35.90
2019-05-01T15:57:58.989Z,37.70
2019-05-01T16:00:28.417Z,33.98
2019-05-01T16:02:57.836Z,35.23
2019-05-01T16:05:27.261Z,32.53
2019-05-01T16:08:08.957Z,34.85
2019-05-01T16:10:32.286Z,98.12
2019-05-01T16:13:02.889Z,100.30
2019-05-01T16:15:35.900Z,102.35
2019-05-01T16:18:05.470Z,82.57
2019-05-01T16:20:34.891Z,85.62
2019-05-01T16:23:04.434Z,42.43
2019-05-01T16:25:33.926Z,56.42
2019-05-01T16:28:03.428Z,66.50
2019-05-01T16:30:32.974Z,61.30
2019-05-01T16:33:02.422Z,59.42
2019-05-01T16:35:31.840Z,61.33
2019-05-01T16:38:03.167Z,67.17
2019-05-01T16:41:03.652Z,67.27
2019-05-01T16:43:33.176Z,60.58
2019-05-01T16:46:02.626Z,62.73
2019-05-01T16:48:32.059Z,63.65
2019-05-01T16:51:01.483Z,62.75
2019-05-01T16:53:31.286Z,65.35
2019-05-01T16:56:01.064Z,58.25
2019-05-01T16:58:31.876Z,53.30
2019-05-01T17:01:08.352Z,51.88
2019-05-01T17:03:55.298Z,52.05
2019-05-01T17:06:45.257Z,50.08
2019-05-01T17:09:32.302Z,48.95
2019-05-01T17:12:01.817Z,45.15
2019-05-01T17:14:31.475Z,43.40
2019-05-01T17:17:01.069Z,41.28
2019-05-01T17:19:30.491Z,41.58
2019-05-01T17:21:59.957Z,43.13
2019-05-01T17:24:29.439Z,39.20
2019-05-01T17:26:59.025Z,39.05
2019-05-01T17:29:28.499Z,38.73
2019-05-01T17:32:00.962Z,35.25
2019-05-01T17:34:32.170Z,35.80
2019-05-01T17:37:01.829Z,33.13
2019-05-01T17:39:31.249Z,34.43
2019-05-01T17:42:02.056Z,34.43
2019-05-01T17:44:31.860Z,34.45
2019-05-01T17:47:01.291Z,35.45
2019-05-01T17:49:30.748Z,36.48
2019-05-01T17:52:00.231Z,35.90
2019-05-01T17:54:29.655Z,35.92
2019-05-01T17:56:59.217Z,34.27
2019-05-01T17:59:28.655Z,35.88
2019-05-01T18:02:23.005Z,33.95
2019-05-01T18:05:11.253Z,33.02
2019-05-01T18:07:40.765Z,32.83
2019-05-01T18:10:10.295Z,31.00
2019-05-01T18:12:39.721Z,31.10
2019-05-01T18:15:09.112Z,31.02
2019-05-01T18:17:38.566Z,30.82
2019-05-01T18:20:08.106Z,29.45
2019-05-01T18:23:14.674Z,28.27
2019-05-01T18:25:50.953Z,27.62
2019-05-01T18:28:33.730Z,27.32
2019-05-01T18:31:03.734Z,27.55
2019-05-01T18:33:33.195Z,27.05
2019-05-01T18:36:02.899Z,25.10
2019-05-01T18:38:48.706Z,25.35
2019-05-01T18:41:25.924Z,25.00
2019-05-01T18:43:55.367Z,24.23
2019-05-01T18:46:24.855Z,23.42
2019-05-01T18:48:54.318Z,23.67
2019-05-01T18:51:23.756Z,22.85
2019-05-01T18:53:57.487Z,22.80
2019-05-01T18:56:24.311Z,22.70
2019-05-01T18:58:54.215Z,21.57
2019-05-01T19:01:23.632Z,20.65
2019-05-01T19:03:53.087Z,21.33
2019-05-01T19:06:22.533Z,21.70
2019-05-01T19:08:51.945Z,21.48
2019-05-01T19:11:21.415Z,21.33
2019-05-01T19:13:50.901Z,21.77
2019-05-01T19:16:20.345Z,20.43
2019-05-01T19:18:49.772Z,20.82
2019-05-01T19:21:23.613Z,21.00
2019-05-01T19:23:52.162Z,21.50
2019-05-01T19:26:21.723Z,20.23
2019-05-01T19:28:51.169Z,20.30
2019-05-01T19:31:21.417Z,19.62
2019-05-01T19:33:50.906Z,20.37
2019-05-01T19:36:20.328Z,20.08
2019-05-01T19:38:49.761Z,19.27
2019-05-01T19:41:19.197Z,18.92
2019-05-01T19:43:48.613Z,19.80
2019-05-01T19:46:18.041Z,18.85
2019-05-01T19:48:50.832Z,19.67
2019-05-01T19:51:19.205Z,19.17
2019-05-01T19:53:51.595Z,19.07
2019-05-01T19:56:22.647Z,17.90
2019-05-01T19:58:52.141Z,19.67
2019-05-01T20:01:21.645Z,17.30
2019-05-01T20:03:51.087Z,17.92
2019-05-01T20:06:20.549Z,18.90
2019-05-01T20:08:49.931Z,17.77
2019-05-01T20:11:19.361Z,18.10
2019-05-01T20:13:48.806Z,17.20
2019-05-01T20:16:19.902Z,16.60
2019-05-01T20:18:49.342Z,17.15
2019-05-01T20:21:18.817Z,16.02
2019-05-01T20:23:48.259Z,16.15
2019-05-01T20:26:17.723Z,16.07
2019-05-01T20:28:47.240Z,16.62
2019-05-01T20:31:17.944Z,17.20
2019-05-01T20:33:47.816Z,16.57
2019-05-01T20:36:17.271Z,16.07
2019-05-01T20:38:46.991Z,16.05
2019-05-01T20:41:18.096Z,16.30
2019-05-01T20:43:47.649Z,16.10
2019-05-01T20:46:21.368Z,15.20
2019-05-01T20:48:48.229Z,15.65
2019-05-01T20:51:20.166Z,14.85
2019-05-01T20:53:48.802Z,14.33
2019-05-01T20:56:35.202Z,15.43
2019-05-01T20:59:04.992Z,13.95
2019-05-01T21:01:34.503Z,15.32
2019-05-01T21:04:18.028Z,15.00
2019-05-01T21:07:00.574Z,14.78
2019-05-01T21:09:46.813Z,14.98
2019-05-01T21:12:05.911Z,14.00
2019-05-01T21:14:35.307Z,13.88
2019-05-01T21:17:09.569Z,14.35
2019-05-01T21:19:37.749Z,14.98
2019-05-01T21:22:07.017Z,14.33
2019-05-01T21:24:36.445Z,13.60
2019-05-01T21:27:05.872Z,13.05
2019-05-01T21:29:35.307Z,13.85
2019-05-01T21:32:04.714Z,14.45
2019-05-01T21:34:34.133Z,13.65
2019-05-01T21:37:03.567Z,13.98
2019-05-01T21:39:33.501Z,13.35
2019-05-01T21:42:06.898Z,12.65
2019-05-01T21:44:34.061Z,13.28
2019-05-01T21:47:04.076Z,12.58
2019-05-01T21:49:33.497Z,12.15
2019-05-01T21:52:03.681Z,13.22
2019-05-01T21:54:34.222Z,13.30
2019-05-01T21:57:03.643Z,12.15
2019-05-01T21:59:35.172Z,12.50
2019-05-01T22:02:05.487Z,11.83
2019-05-01T22:04:35.377Z,12.05
2019-05-01T22:07:05.490Z,11.75
2019-05-01T22:09:35.099Z,12.95
2019-05-01T22:12:08.181Z,11.78
2019-05-01T22:14:43.962Z,11.75
2019-05-01T22:17:20.729Z,11.93
2019-05-01T22:19:50.153Z,10.85
2019-05-01T22:22:43.682Z,11.88
2019-05-01T22:25:17.470Z,12.47
2019-05-01T22:27:53.824Z,11.68
2019-05-01T22:30:46.413Z,11.73
2019-05-01T22:33:16.353Z,10.90
2019-05-01T22:35:47.940Z,11.28
2019-05-01T22:38:17.356Z,10.68
2019-05-01T22:41:06.570Z,10.90
2019-05-01T22:43:32.132Z,10.25
2019-05-01T22:46:03.359Z,11.50
2019-05-01T22:48:33.094Z,11.00
2019-05-01T22:51:39.415Z,10.88
2019-05-01T22:54:08.852Z,10.72
2019-05-01T22:56:38.365Z,10.63
2019-05-01T22:59:07.794Z,10.95
2019-05-01T23:01:37.302Z,10.18
2019-05-01T23:04:12.194Z,10.15
2019-05-01T23:06:41.761Z,10.40
2019-05-01T23:09:10.465Z,10.75
2019-05-01T23:11:42.202Z,10.38
2019-05-01T23:14:12.008Z,9.95
2019-05-01T23:16:54.707Z,9.78
2019-05-01T23:19:27.827Z,9.95
2019-05-01T23:21:58.197Z,9.68
2019-05-01T23:24:26.441Z,9.50
2019-05-01T23:26:55.868Z,9.88
2019-05-01T23:29:25.303Z,9.03
2019-05-01T23:31:54.806Z,10.20
2019-05-01T23:34:26.240Z,9.85
2019-05-01T23:36:55.399Z,9.38
2019-05-01T23:39:24.838Z,9.13
2019-05-01T23:41:54.263Z,9.53
2019-05-01T23:44:23.691Z,9.70
2019-05-01T23:46:53.123Z,9.25
2019-05-01T23:49:22.565Z,8.95
2019-05-01T23:51:51.976Z,9.38
2019-05-01T23:54:21.404Z,9.23
2019-05-01T23:56:50.844Z,9.35
2019-05-01T23:59:20.305Z,8.60
